Time;durP1;ratioP1;P1;durP2;ratioP2;P2;SDS_P1;SDS_P2;PMS_P1;PMS_P2;Temp;Humidity;BMP_temperature;BMP_pressure;BME280_temperature;BME280_humidity;BME280_pressure;Samples;Min_cycle;Max_cycle;Signal;HPM_P1;HPM_P2
2023/09/25 00:00:35;;;;;;;1.23;0.90;;;19.40;89.70;;;;;;5057265;28;20031;-81
2023/09/25 00:03:03;;;;;;;2.70;1.00;;;19.40;89.80;;;;;;5057669;28;20406;-83
2023/09/25 00:05:30;;;;;;;1.77;0.90;;;19.40;89.80;;;;;;5057638;28;20667;-82
2023/09/25 00:07:56;;;;;;;2.13;1.23;;;19.40;89.80;;;;;;5075220;28;20036;-83
2023/09/25 00:10:22;;;;;;;2.22;1.10;;;19.40;89.80;;;;;;5075068;28;20025;-82
2023/09/25 00:12:48;;;;;;;2.30;0.98;;;19.40;89.80;;;;;;5056516;28;20032;-82
2023/09/25 00:15:15;;;;;;;1.50;1.00;;;19.40;89.80;;;;;;5074197;28;20505;-82
2023/09/25 00:17:42;;;;;;;1.77;1.02;;;19.40;89.90;;;;;;5056638;28;20113;-82
2023/09/25 00:20:10;;;;;;;1.73;1.00;;;19.40;90.00;;;;;;5074685;28;20017;-82
2023/09/25 00:22:40;;;;;;;2.15;1.10;;;19.40;90.00;;;;;;5074383;28;20028;-82
2023/09/25 00:25:06;;;;;;;1.20;0.80;;;19.40;89.90;;;;;;5056274;28;20020;-82
2023/09/25 00:27:31;;;;;;;1.40;0.90;;;19.40;89.90;;;;;;5056389;28;20021;-82
2023/09/25 00:29:58;;;;;;;2.63;1.15;;;19.40;89.90;;;;;;5056428;28;20016;-82
2023/09/25 00:32:23;;;;;;;1.83;1.00;;;19.40;89.70;;;;;;5074349;28;20020;-82
2023/09/25 00:34:49;;;;;;;1.85;1.00;;;19.40;89.60;;;;;;5074069;28;20390;-84
2023/09/25 00:37:14;;;;;;;1.83;0.90;;;19.40;89.70;;;;;;5074165;28;20029;-82
2023/09/25 00:39:42;;;;;;;2.40;0.90;;;19.50;89.60;;;;;;5074519;28;20148;-82
2023/09/25 00:42:08;;;;;;;1.85;1.10;;;19.50;89.50;;;;;;5055836;28;20705;-82
2023/09/25 00:44:33;;;;;;;1.48;1.10;;;19.40;89.50;;;;;;5055738;28;20067;-82
2023/09/25 00:46:59;;;;;;;1.65;1.10;;;19.40;89.50;;;;;;5055706;28;20032;-82
2023/09/25 00:49:26;;;;;;;1.38;0.93;;;19.40;89.50;;;;;;5056026;28;20476;-82
2023/09/25 00:51:52;;;;;;;1.50;1.00;;;19.40;89.70;;;;;;5055849;28;20061;-81
2023/09/25 00:54:18;;;;;;;1.42;1.10;;;19.40;89.60;;;;;;5073758;28;20021;-83
2023/09/25 00:56:45;;;;;;;2.15;0.93;;;19.40;89.60;;;;;;5055807;28;20029;-82
2023/09/25 00:59:11;;;;;;;2.58;1.00;;;19.40;89.60;;;;;;5072590;28;20024;-83
2023/09/25 01:01:37;;;;;;;3.33;1.10;;;19.30;89.50;;;;;;5093944;28;20016;-82
2023/09/25 01:04:03;;;;;;;2.17;1.13;;;19.40;89.60;;;;;;5075599;28;20038;-82
2023/09/25 01:06:29;;;;;;;1.88;1.05;;;19.30;89.40;;;;;;5075728;28;20067;-83
2023/09/25 01:08:55;;;;;;;1.55;0.90;;;19.30;89.20;;;;;;5093592;28;20028;-82
2023/09/25 01:11:22;;;;;;;3.05;0.95;;;19.30;89.40;;;;;;5093809;28;20074;-82
2023/09/25 01:13:47;;;;;;;2.05;1.00;;;19.30;89.40;;;;;;5093366;28;20028;-82
2023/09/25 01:16:13;;;;;;;1.38;0.95;;;19.30;89.40;;;;;;5075795;28;20019;-83
2023/09/25 01:18:38;;;;;;;1.67;0.90;;;19.30;89.60;;;;;;5075432;28;20020;-82
2023/09/25 01:21:04;;;;;;;2.45;1.02;;;19.30;89.80;;;;;;5075792;28;20386;-83
2023/09/25 01:23:30;;;;;;;1.83;1.00;;;19.40;89.80;;;;;;5075715;28;20118;-83
2023/09/25 01:25:55;;;;;;;2.28;1.20;;;19.40;89.60;;;;;;5075549;28;20028;-83
2023/09/25 01:28:21;;;;;;;1.42;0.82;;;19.30;89.40;;;;;;5075623;28;20489;-83
2023/09/25 01:30:46;;;;;;;1.67;1.05;;;19.40;89.30;;;;;;5075474;28;20024;-83
2023/09/25 01:33:12;;;;;;;2.08;0.88;;;19.40;89.30;;;;;;5075425;28;20020;-82
2023/09/25 01:35:37;;;;;;;1.50;0.90;;;19.40;89.30;;;;;;5075832;28;20020;-82
2023/09/25 01:38:06;;;;;;;1.48;0.90;;;19.40;89.20;;;;;;5093556;28;20032;-82
2023/09/25 01:40:32;;;;;;;1.80;1.00;;;19.40;89.20;;;;;;5075698;28;20020;-82
2023/09/25 01:42:57;;;;;;;2.05;0.90;;;19.40;89.20;;;;;;5075754;28;20031;-82
2023/09/25 01:45:23;;;;;;;3.20;1.10;;;19.30;89.30;;;;;;5075531;28;20550;-82
2023/09/25 01:47:51;;;;;;;1.70;1.00;;;19.40;89.40;;;;;;5110246;22;20044;-79
2023/09/25 01:50:21;;;;;;;1.73;1.00;;;19.30;89.30;;;;;;5098509;28;20560;-80
2023/09/25 01:52:48;;;;;;;1.35;0.80;;;19.30;89.40;;;;;;5098347;28;20035;-80
2023/09/25 01:55:14;;;;;;;1.73;1.10;;;19.30;89.50;;;;;;5118236;28;20020;-80
2023/09/25 01:57:40;;;;;;;1.92;0.90;;;19.30;89.60;;;;;;5120829;28;20598;-78
2023/09/25 02:00:09;;;;;;;1.48;0.90;;;19.30;89.60;;;;;;5120047;28;20055;-78
2023/09/25 02:02:40;;;;;;;2.20;1.10;;;19.30;89.60;;;;;;5101741;28;20076;-80
2023/09/25 02:05:06;;;;;;;1.52;0.88;;;19.30;89.60;;;;;;5101281;28;20020;-78
2023/09/25 02:07:32;;;;;;;1.52;1.00;;;19.30;89.60;;;;;;5101217;28;20023;-78
2023/09/25 02:09:58;;;;;;;1.10;0.85;;;19.30;90.00;;;;;;5101804;28;20023;-78
2023/09/25 02:12:24;;;;;;;2.75;0.93;;;19.30;89.60;;;;;;5119692;28;20023;-78
2023/09/25 02:14:54;;;;;;;1.77;1.05;;;19.30;89.70;;;;;;5100440;28;20080;-78
2023/09/25 02:17:20;;;;;;;1.58;1.00;;;19.30;90.00;;;;;;5100913;28;20051;-80
2023/09/25 02:19:46;;;;;;;1.60;0.93;;;19.30;90.00;;;;;;5096964;28;20023;-78
2023/09/25 02:22:12;;;;;;;2.13;1.00;;;19.30;90.00;;;;;;5096929;28;20028;-80
2023/09/25 02:24:39;;;;;;;1.50;0.95;;;19.30;90.00;;;;;;5098033;28;20366;-78
2023/09/25 02:27:04;;;;;;;1.48;0.93;;;19.30;89.90;;;;;;5097497;28;20031;-78
2023/09/25 02:29:31;;;;;;;1.65;1.00;;;19.30;89.80;;;;;;5096654;28;20028;-78
2023/09/25 02:31:56;;;;;;;1.65;1.00;;;19.30;89.60;;;;;;5098378;28;20034;-78
2023/09/25 02:34:22;;;;;;;1.80;0.90;;;19.40;89.70;;;;;;5097734;28;20028;-78
2023/09/25 02:36:48;;;;;;;2.15;0.93;;;19.30;89.40;;;;;;5096501;28;20016;-78
2023/09/25 02:39:15;;;;;;;1.85;1.00;;;19.30;89.40;;;;;;5097764;28;20368;-78
2023/09/25 02:41:40;;;;;;;1.13;0.90;;;19.30;89.40;;;;;;5096320;28;20478;-78
2023/09/25 02:44:06;;;;;;;1.27;0.90;;;19.30;89.40;;;;;;5097176;28;20028;-78
2023/09/25 02:46:32;;;;;;;1.38;1.00;;;19.30;89.50;;;;;;5097151;28;20030;-77
2023/09/25 02:48:57;;;;;;;1.77;1.08;;;19.30;89.50;;;;;;5095639;28;20088;-80
2023/09/25 02:51:23;;;;;;;1.85;0.90;;;19.30;89.60;;;;;;5098742;28;20481;-78
2023/09/25 02:53:48;;;;;;;1.17;0.93;;;19.30;89.70;;;;;;5098583;28;20024;-78
2023/09/25 02:56:14;;;;;;;2.15;1.00;;;19.30;89.70;;;;;;5117012;28;20045;-77
2023/09/25 02:58:39;;;;;;;1.30;0.90;;;19.20;89.70;;;;;;5098984;28;20416;-78
2023/09/25 03:01:05;;;;;;;0.98;0.82;;;19.20;89.70;;;;;;5098486;28;20107;-78
2023/09/25 03:03:30;;;;;;;2.35;1.05;;;19.30;89.80;;;;;;5097831;28;20059;-79
2023/09/25 03:05:56;;;;;;;2.15;1.20;;;19.20;89.80;;;;;;5094995;28;20452;-81
2023/09/25 03:08:22;;;;;;;1.42;0.98;;;19.20;89.80;;;;;;5086491;28;20578;-80
2023/09/25 03:10:48;;;;;;;2.08;1.17;;;19.20;89.80;;;;;;5095018;28;20027;-81
2023/09/25 03:13:13;;;;;;;1.30;0.90;;;19.20;89.90;;;;;;5093227;28;20059;-78
2023/09/25 03:15:39;;;;;;;1.73;1.10;;;19.30;90.00;;;;;;5093549;28;20127;-78
2023/09/25 03:18:05;;;;;;;1.77;1.05;;;19.30;89.90;;;;;;5111487;28;20046;-78
2023/09/25 03:20:30;;;;;;;1.58;1.00;;;19.30;90.10;;;;;;5110720;28;20417;-80
2023/09/25 03:22:56;;;;;;;1.73;0.90;;;19.30;90.00;;;;;;5093181;28;20119;-80
2023/09/25 03:25:22;;;;;;;1.40;1.00;;;19.30;90.00;;;;;;5111605;28;20034;-80
2023/09/25 03:27:49;;;;;;;1.55;1.00;;;19.30;90.00;;;;;;5112275;28;20103;-78
2023/09/25 03:30:16;;;;;;;1.90;0.90;;;19.30;90.00;;;;;;5111608;28;20057;-80
2023/09/25 03:32:42;;;;;;;1.50;1.00;;;19.30;90.00;;;;;;5111307;28;20439;-77
2023/09/25 03:35:08;;;;;;;1.00;0.90;;;19.40;89.80;;;;;;5111258;28;20016;-78
2023/09/25 03:37:34;;;;;;;2.22;1.15;;;19.30;89.70;;;;;;5110494;28;20056;-77
2023/09/25 03:39:59;;;;;;;2.10;1.00;;;19.30;89.70;;;;;;5091754;28;20028;-81
2023/09/25 03:42:25;;;;;;;1.63;1.00;;;19.30;89.80;;;;;;5093505;28;20416;-79
2023/09/25 03:44:51;;;;;;;1.20;0.90;;;19.30;89.80;;;;;;5111445;28;20469;-78
2023/09/25 03:47:18;;;;;;;1.35;0.80;;;19.30;89.90;;;;;;5112646;28;20446;-80
2023/09/25 03:49:44;;;;;;;2.08;1.10;;;19.20;89.90;;;;;;5093527;28;20036;-81
2023/09/25 03:52:10;;;;;;;1.23;0.90;;;19.20;90.00;;;;;;5112655;28;20026;-81
2023/09/25 03:54:35;;;;;;;1.90;1.00;;;19.20;89.90;;;;;;5093214;28;20050;-82
2023/09/25 03:57:01;;;;;;;2.78;1.10;;;19.30;90.00;;;;;;5094032;28;20039;-82
2023/09/25 03:59:27;;;;;;;2.00;1.10;;;19.20;90.00;;;;;;5112535;28;20076;-82
2023/09/25 04:01:52;;;;;;;1.15;0.90;;;19.20;90.00;;;;;;5094181;28;20493;-83
2023/09/25 04:04:18;;;;;;;1.35;0.93;;;19.20;90.00;;;;;;5093764;28;20496;-80
2023/09/25 04:06:43;;;;;;;1.30;0.90;;;19.20;90.00;;;;;;5113092;28;20032;-83
2023/09/25 04:09:09;;;;;;;1.25;1.00;;;19.20;90.00;;;;;;5111913;28;20023;-78
2023/09/25 04:11:34;;;;;;;1.58;1.00;;;19.20;90.00;;;;;;5094387;28;20020;-82
2023/09/25 04:14:03;;;;;;;1.52;0.95;;;19.20;90.00;;;;;;5093775;28;20103;-82
2023/09/25 04:16:28;;;;;;;2.33;1.10;;;19.20;90.00;;;;;;5112643;28;20023;-80
2023/09/25 04:18:58;;;;;;;1.48;1.00;;;19.20;90.10;;;;;;5089861;28;20020;-79
2023/09/25 04:21:24;;;;;;;1.75;0.90;;;19.20;90.10;;;;;;5086488;28;20110;-81
2023/09/25 04:23:49;;;;;;;1.77;1.08;;;19.20;90.10;;;;;;5111289;28;20099;-80
2023/09/25 04:26:16;;;;;;;1.77;1.00;;;19.20;90.10;;;;;;5092714;28;20055;-79
2023/09/25 04:28:42;;;;;;;2.78;1.10;;;19.30;90.10;;;;;;5091322;28;20027;-80
2023/09/25 04:31:08;;;;;;;0.90;0.80;;;19.30;90.10;;;;;;5092183;28;20697;-78
2023/09/25 04:33:35;;;;;;;2.00;1.00;;;19.30;90.00;;;;;;5089711;28;20436;-81
2023/09/25 04:36:01;;;;;;;1.25;1.00;;;19.30;89.80;;;;;;5093530;28;20027;-80
2023/09/25 04:38:27;;;;;;;2.50;1.00;;;19.30;89.80;;;;;;5087875;27;20031;-79
2023/09/25 04:40:53;;;;;;;1.48;1.00;;;19.20;89.70;;;;;;5083939;27;20542;-80
2023/09/25 04:43:18;;;;;;;1.38;1.00;;;19.20;89.80;;;;;;5101767;27;20027;-79
2023/09/25 04:45:46;;;;;;;1.77;0.90;;;19.20;89.90;;;;;;5090794;27;20115;-80
2023/09/25 04:48:11;;;;;;;1.70;1.08;;;19.20;89.90;;;;;;5099462;28;20032;-79
2023/09/25 04:50:37;;;;;;;1.13;0.90;;;19.20;90.00;;;;;;5124683;27;20411;-78
2023/09/25 04:53:05;;;;;;;1.27;1.08;;;19.20;90.00;;;;;;5123114;27;20048;-80
2023/09/25 04:55:31;;;;;;;1.23;1.00;;;19.20;90.00;;;;;;5119166;27;20060;-81
2023/09/25 04:57:57;;;;;;;2.13;1.00;;;19.20;90.00;;;;;;5116943;27;20027;-80
2023/09/25 05:00:24;;;;;;;1.83;1.05;;;19.20;90.00;;;;;;5117627;27;20449;-80
2023/09/25 05:02:50;;;;;;;1.35;0.90;;;19.20;90.00;;;;;;5114877;27;20026;-79
2023/09/25 05:05:17;;;;;;;1.73;1.00;;;19.10;90.00;;;;;;5132983;27;20027;-80
2023/09/25 05:07:44;;;;;;;1.88;1.10;;;19.20;90.00;;;;;;5114780;27;20031;-80
2023/09/25 05:10:11;;;;;;;1.48;0.90;;;19.20;90.10;;;;;;5132858;27;20050;-80
2023/09/25 05:12:40;;;;;;;1.20;1.00;;;19.10;90.00;;;;;;5113663;27;20091;-80
2023/09/25 05:15:10;;;;;;;1.60;1.05;;;19.10;90.10;;;;;;5132394;27;20071;-80
2023/09/25 05:17:37;;;;;;;1.13;0.90;;;19.10;90.10;;;;;;5131766;27;20495;-79
2023/09/25 05:20:10;;;;;;;1.30;0.98;;;19.20;90.20;;;;;;5134177;27;20023;-79
2023/09/25 05:22:39;;;;;;;2.47;1.10;;;19.10;90.00;;;;;;5111109;27;20038;-77
2023/09/25 05:25:09;;;;;;;1.25;1.00;;;19.20;90.10;;;;;;5115849;27;20048;-78
2023/09/25 05:27:39;;;;;;;3.83;1.30;;;19.20;90.00;;;;;;5118529;27;20027;-80
2023/09/25 05:30:09;;;;;;;2.90;1.20;;;19.20;89.70;;;;;;5108706;28;20087;-80
2023/09/25 05:32:35;;;;;;;2.92;1.30;;;19.20;89.50;;;;;;5093215;28;20024;-79
2023/09/25 05:35:01;;;;;;;3.75;1.52;;;19.20;89.20;;;;;;5097831;28;20472;-80
2023/09/25 05:37:27;;;;;;;2.65;1.23;;;19.20;89.10;;;;;;5100316;28;20078;-79
2023/09/25 05:39:52;;;;;;;3.20;1.30;;;19.20;89.00;;;;;;5099034;28;20386;-79
2023/09/25 05:42:18;;;;;;;3.75;1.30;;;19.20;89.00;;;;;;5117010;28;20067;-79
2023/09/25 05:44:44;;;;;;;3.42;1.23;;;19.20;89.00;;;;;;5120712;28;20035;-79
2023/09/25 05:47:09;;;;;;;2.55;1.30;;;19.20;89.10;;;;;;5121574;28;20023;-79
2023/09/25 05:49:35;;;;;;;2.67;1.25;;;19.20;89.10;;;;;;5121658;28;20039;-79
2023/09/25 05:52:00;;;;;;;2.30;1.30;;;19.20;89.00;;;;;;5121611;28;20056;-78
2023/09/25 05:54:26;;;;;;;1.98;1.20;;;19.20;89.00;;;;;;5121336;28;20681;-79
2023/09/25 05:56:51;;;;;;;2.75;1.48;;;19.20;89.00;;;;;;5121076;28;20024;-79
2023/09/25 05:59:17;;;;;;;3.00;1.35;;;19.20;89.00;;;;;;5120298;28;20051;-78
2023/09/25 06:01:43;;;;;;;2.97;1.33;;;19.20;88.90;;;;;;5138956;28;20023;-79
2023/09/25 06:04:09;;;;;;;2.40;1.40;;;19.20;89.00;;;;;;5120795;28;20049;-79
2023/09/25 06:06:35;;;;;;;2.75;1.38;;;19.20;88.90;;;;;;5120149;28;20803;-80
2023/09/25 06:09:02;;;;;;;4.28;1.40;;;19.20;88.90;;;;;;5120009;28;20047;-79
2023/09/25 06:11:28;;;;;;;1.50;1.15;;;19.30;88.80;;;;;;5139113;28;20106;-79
2023/09/25 06:13:53;;;;;;;1.98;1.27;;;19.20;88.80;;;;;;5138097;28;20046;-79
2023/09/25 06:16:19;;;;;;;1.88;1.38;;;19.20;88.80;;;;;;5137883;28;20092;-79
2023/09/25 06:18:45;;;;;;;2.72;1.30;;;19.30;88.50;;;;;;5138289;28;20469;-79
2023/09/25 06:21:13;;;;;;;2.67;1.30;;;19.30;88.50;;;;;;5137902;28;20537;-79
2023/09/25 06:23:42;;;;;;;2.17;1.27;;;19.30;88.40;;;;;;5118670;28;20041;-80
2023/09/25 06:26:09;;;;;;;1.75;1.30;;;19.40;87.90;;;;;;5137975;28;20030;-79
2023/09/25 06:28:34;;;;;;;2.47;1.42;;;19.40;87.60;;;;;;5117986;28;20445;-79
2023/09/25 06:31:00;;;;;;;2.33;1.10;;;19.40;87.40;;;;;;5137133;28;20100;-80
2023/09/25 06:33:28;;;;;;;1.40;1.25;;;19.40;87.20;;;;;;5117850;28;20036;-78
2023/09/25 06:35:54;;;;;;;2.15;1.30;;;19.40;87.10;;;;;;5133041;28;20019;-79
2023/09/25 06:38:19;;;;;;;1.88;1.30;;;19.40;87.30;;;;;;5077078;28;20103;-78
2023/09/25 06:40:46;;;;;;;1.88;1.20;;;19.40;87.60;;;;;;5104240;28;20523;-79
2023/09/25 06:43:12;;;;;;;1.73;1.25;;;19.40;87.70;;;;;;5118271;28;20089;-79
2023/09/25 06:45:38;;;;;;;2.13;1.20;;;19.40;87.70;;;;;;5119543;28;20358;-79
2023/09/25 06:48:04;;;;;;;1.63;1.10;;;19.40;88.30;;;;;;5099264;28;20030;-77
2023/09/25 06:50:30;;;;;;;1.60;1.13;;;19.40;87.80;;;;;;5119052;28;20032;-79
2023/09/25 06:52:56;;;;;;;2.33;1.20;;;19.50;87.60;;;;;;5100080;28;20111;-78
2023/09/25 06:55:22;;;;;;;2.42;1.40;;;19.50;87.50;;;;;;5099863;28;20023;-79
2023/09/25 06:57:47;;;;;;;2.72;1.30;;;19.50;87.40;;;;;;5100054;28;20472;-79
2023/09/25 07:00:13;;;;;;;2.05;1.20;;;19.60;87.20;;;;;;5118118;28;20042;-80
2023/09/25 07:02:39;;;;;;;1.77;1.20;;;19.60;87.10;;;;;;5098891;28;20019;-79
2023/09/25 07:05:05;;;;;;;2.00;1.20;;;19.60;87.10;;;;;;5099442;28;20061;-79
2023/09/25 07:07:30;;;;;;;1.90;1.40;;;19.60;87.00;;;;;;5099208;28;20023;-78
2023/09/25 07:09:57;;;;;;;2.13;1.20;;;19.60;87.00;;;;;;5099208;28;20435;-78
2023/09/25 07:12:22;;;;;;;2.63;1.45;;;19.60;86.80;;;;;;5098917;28;20386;-78
2023/09/25 07:14:58;;;;;;;1.90;1.30;;;19.60;86.80;;;;;;5098884;28;20147;-78
2023/09/25 07:17:24;;;;;;;3.10;1.40;;;19.70;86.80;;;;;;5098440;28;20089;-77
2023/09/25 07:19:51;;;;;;;2.45;1.35;;;19.70;86.90;;;;;;5117019;28;20473;-77
2023/09/25 07:22:17;;;;;;;2.22;1.30;;;19.70;86.80;;;;;;5117320;28;20104;-79
2023/09/25 07:24:42;;;;;;;2.10;1.33;;;19.70;86.70;;;;;;5116462;28;20051;-79
2023/09/25 07:27:08;;;;;;;2.53;1.20;;;19.80;86.60;;;;;;5098165;28;20115;-77
2023/09/25 07:29:33;;;;;;;2.58;1.25;;;19.80;86.50;;;;;;5116355;28;20030;-79
2023/09/25 07:31:59;;;;;;;2.95;1.30;;;19.80;86.50;;;;;;5097462;28;20027;-78
2023/09/25 07:34:24;;;;;;;2.25;1.38;;;19.70;86.50;;;;;;5096950;28;20028;-79
2023/09/25 07:36:50;;;;;;;2.10;1.45;;;19.70;86.50;;;;;;5115870;28;20024;-79
2023/09/25 07:39:19;;;;;;;1.90;1.40;;;19.70;86.60;;;;;;5115775;28;20119;-79
2023/09/25 07:41:45;;;;;;;1.65;1.30;;;19.70;86.60;;;;;;5116175;28;20020;-78
2023/09/25 07:44:12;;;;;;;2.15;1.27;;;19.70;86.60;;;;;;5096851;28;20460;-78
2023/09/25 07:46:39;;;;;;;2.15;1.17;;;19.80;86.60;;;;;;5115354;28;20047;-78
2023/09/25 07:49:05;;;;;;;2.35;1.38;;;19.80;86.50;;;;;;5112714;22;20045;-81
2023/09/25 07:51:32;;;;;;;1.77;1.20;;;19.80;86.40;;;;;;5100194;28;20112;-81
2023/09/25 07:53:58;;;;;;;3.53;1.50;;;19.80;86.30;;;;;;5099964;28;20026;-81
2023/09/25 07:56:24;;;;;;;1.88;1.50;;;19.80;86.20;;;;;;5099656;28;20026;-81
2023/09/25 07:58:50;;;;;;;1.45;1.30;;;19.80;86.30;;;;;;5099869;28;20021;-81
2023/09/25 08:01:15;;;;;;;3.40;1.60;;;19.80;86.20;;;;;;5099674;28;20039;-81
2023/09/25 08:03:41;;;;;;;1.77;1.30;;;19.90;86.10;;;;;;5099403;28;20026;-81
2023/09/25 08:06:07;;;;;;;2.22;1.42;;;19.90;86.00;;;;;;5099673;28;20041;-81
2023/09/25 08:08:36;;;;;;;1.92;1.40;;;19.90;85.90;;;;;;5099638;28;20032;-81
2023/09/25 08:11:02;;;;;;;2.13;1.30;;;19.90;85.80;;;;;;5099622;28;20517;-82
2023/09/25 08:13:28;;;;;;;1.55;1.20;;;20.00;85.90;;;;;;5030918;28;20032;-82
2023/09/25 08:15:53;;;;;;;1.65;1.25;;;20.00;86.00;;;;;;5099738;28;20026;-80
2023/09/25 08:18:19;;;;;;;2.08;1.50;;;20.00;86.00;;;;;;5100045;28;20031;-80
2023/09/25 08:20:45;;;;;;;2.28;1.50;;;20.00;85.90;;;;;;5032141;28;20072;-81
2023/09/25 08:23:11;;;;;;;1.30;1.20;;;20.00;85.80;;;;;;5100042;28;20032;-81
2023/09/25 08:25:36;;;;;;;1.83;1.30;;;20.10;85.70;;;;;;5100017;28;20025;-81
2023/09/25 08:28:02;;;;;;;3.20;1.63;;;20.10;85.60;;;;;;5099953;28;20033;-80
2023/09/25 08:30:27;;;;;;;1.55;1.30;;;20.10;85.40;;;;;;5100296;28;20030;-79
2023/09/25 08:32:53;;;;;;;3.90;1.70;;;20.20;85.30;;;;;;5031604;28;20057;-81
2023/09/25 08:35:19;;;;;;;2.92;1.40;;;20.20;85.30;;;;;;5099973;28;20037;-80
2023/09/25 08:37:45;;;;;;;1.60;1.23;;;20.20;85.20;;;;;;5099728;28;20025;-83
2023/09/25 08:40:11;;;;;;;2.15;1.30;;;20.20;85.10;;;;;;5031684;28;20395;-81
2023/09/25 08:42:37;;;;;;;2.10;1.40;;;20.20;85.10;;;;;;5031613;28;20018;-80
2023/09/25 08:45:04;;;;;;;1.77;1.20;;;20.30;85.10;;;;;;5099666;28;20013;-80
2023/09/25 08:47:34;;;;;;;2.38;1.30;;;20.20;84.90;;;;;;5099790;28;20036;-81
2023/09/25 08:50:00;;;;;;;1.45;1.15;;;20.20;85.00;;;;;;5031215;28;20018;-81
2023/09/25 08:52:26;;;;;;;2.42;1.40;;;20.30;84.90;;;;;;5095593;28;20379;-81
2023/09/25 08:54:52;;;;;;;2.47;1.40;;;20.30;84.90;;;;;;5011273;28;20030;-82
2023/09/25 08:57:19;;;;;;;2.40;1.45;;;20.30;84.80;;;;;;5082494;28;20117;-82
2023/09/25 08:59:51;;;;;;;2.67;1.60;;;20.30;84.90;;;;;;5031016;28;20419;-82
2023/09/25 09:02:17;;;;;;;2.10;1.33;;;20.30;84.80;;;;;;5030829;28;20036;-82
2023/09/25 09:04:43;;;;;;;2.22;1.23;;;20.40;84.90;;;;;;5098540;28;20025;-83
2023/09/25 09:07:09;;;;;;;2.10;1.30;;;20.40;84.80;;;;;;5031373;28;20022;-82
2023/09/25 09:09:36;;;;;;;1.48;1.10;;;20.40;84.70;;;;;;5030906;28;20022;-83
2023/09/25 09:12:03;;;;;;;2.35;1.30;;;20.40;84.70;;;;;;5099044;28;20104;-82
2023/09/25 09:14:33;;;;;;;2.47;1.30;;;20.50;84.60;;;;;;5099146;28;20429;-82
2023/09/25 09:16:59;;;;;;;1.67;1.20;;;20.50;84.50;;;;;;5031081;28;20456;-81
2023/09/25 09:19:25;;;;;;;2.63;1.58;;;20.50;84.50;;;;;;5030746;28;20399;-81
2023/09/25 09:22:03;;;;;;;2.28;1.30;;;20.50;84.50;;;;;;5099171;28;20030;-80
2023/09/25 09:24:30;;;;;;;2.22;1.35;;;20.60;84.50;;;;;;5098844;28;20049;-82
2023/09/25 09:26:56;;;;;;;1.45;1.10;;;20.60;84.40;;;;;;5099246;28;20033;-80
2023/09/25 09:29:22;;;;;;;2.42;1.45;;;20.60;84.20;;;;;;5098777;28;20026;-80
2023/09/25 09:31:52;;;;;;;1.98;1.13;;;20.60;84.20;;;;;;5030574;28;20100;-80
2023/09/25 09:34:22;;;;;;;1.90;1.20;;;20.60;84.20;;;;;;5098849;28;20387;-80
2023/09/25 09:36:51;;;;;;;2.13;1.42;;;20.60;84.20;;;;;;5030847;28;20026;-81
2023/09/25 09:39:25;;;;;;;2.00;1.23;;;20.60;84.20;;;;;;5030736;28;20581;-84
2023/09/25 09:41:56;;;;;;;2.17;1.38;;;20.60;84.20;;;;;;5098543;28;20036;-79
2023/09/25 09:44:22;;;;;;;1.42;1.10;;;20.60;84.10;;;;;;5098595;28;20029;-80
2023/09/25 09:46:50;;;;;;;1.48;1.17;;;20.60;84.10;;;;;;5098641;28;20026;-80
2023/09/25 09:49:21;;;;;;;2.50;1.30;;;20.50;84.10;;;;;;5030239;28;20029;-81
2023/09/25 09:51:50;;;;;;;;;;;20.50;84.20;;;;;;5030706;28;20525;-81
2023/09/25 09:54:19;;;;;;;1.60;1.27;;;20.60;84.20;;;;;;5098517;28;19966;-83
2023/09/25 09:56:47;;;;;;;1.77;1.23;;;20.60;84.40;;;;;;5098530;28;20452;-82
2023/09/25 09:59:14;;;;;;;1.70;1.13;;;20.60;84.60;;;;;;5028889;28;20014;-82
2023/09/25 10:01:43;;;;;;;1.85;1.23;;;20.60;84.70;;;;;;5030305;28;20141;-82
2023/09/25 10:04:09;;;;;;;1.75;1.20;;;20.60;84.80;;;;;;5098048;28;20030;-83
2023/09/25 10:06:58;;;;;;;1.75;1.20;;;20.50;84.80;;;;;;5030372;28;20394;-83
2023/09/25 10:09:25;;;;;;;1.75;1.20;;;20.50;84.90;;;;;;5098295;28;20021;-83
2023/09/25 10:11:54;;;;;;;2.28;1.17;;;20.50;84.90;;;;;;5030025;28;20041;-83
2023/09/25 10:14:24;;;;;;;2.20;1.30;;;20.50;84.90;;;;;;5098194;28;20049;-83
2023/09/25 10:16:55;;;;;;;1.77;1.40;;;20.50;84.80;;;;;;5101362;28;20029;-83
2023/09/25 10:19:21;;;;;;;;;;;20.60;85.40;;;;;;5034055;28;20028;-80
2023/09/25 10:22:09;;;;;;;1.52;1.10;;;20.60;84.80;;;;;;5033672;28;19905;-83
2023/09/25 10:24:35;;;;;;;1.45;1.00;;;20.60;84.80;;;;;;5102261;28;20032;-83
2023/09/25 10:27:02;;;;;;;2.20;1.20;;;20.60;84.80;;;;;;5102096;28;20033;-81
2023/09/25 10:29:28;;;;;;;1.48;1.05;;;20.60;84.90;;;;;;5102285;28;20509;-81
2023/09/25 10:31:53;;;;;;;2.15;1.20;;;20.50;84.90;;;;;;5101878;28;20029;-81
2023/09/25 10:34:22;;;;;;;1.40;1.13;;;20.50;85.00;;;;;;5101905;28;20029;-81
2023/09/25 10:36:50;;;;;;;2.33;1.13;;;20.50;85.10;;;;;;5101881;28;20017;-82
2023/09/25 10:39:18;;;;;;;1.55;1.02;;;20.50;85.20;;;;;;5033372;28;20070;-81
2023/09/25 10:41:45;;;;;;;2.47;1.20;;;20.50;85.20;;;;;;5033561;27;20086;-81
2023/09/25 10:44:12;;;;;;;1.80;1.20;;;20.50;85.20;;;;;;5032830;28;20418;-81
2023/09/25 10:46:38;;;;;;;1.23;1.00;;;20.40;85.30;;;;;;5102232;28;20129;-81
2023/09/25 10:49:05;;;;;;;1.27;1.02;;;20.40;85.30;;;;;;5101393;28;20040;-82
2023/09/25 10:51:31;;;;;;;1.80;1.30;;;20.40;85.30;;;;;;5101539;28;20033;-81
2023/09/25 10:53:56;;;;;;;1.45;1.00;;;20.40;85.30;;;;;;5101271;28;20032;-81
2023/09/25 10:56:22;;;;;;;1.55;1.10;;;20.40;85.30;;;;;;5101710;28;20026;-82
2023/09/25 10:58:50;;;;;;;2.22;1.20;;;20.40;85.40;;;;;;5101818;28;20021;-79
2023/09/25 11:01:22;;;;;;;1.40;1.10;;;20.40;85.90;;;;;;5033273;28;20022;-81
2023/09/25 11:03:47;;;;;;;2.05;1.20;;;20.40;85.40;;;;;;5101501;28;20073;-78
2023/09/25 11:06:13;;;;;;;1.98;1.00;;;20.40;85.40;;;;;;5032835;28;20118;-81
2023/09/25 11:08:39;;;;;;;1.50;1.02;;;20.40;85.50;;;;;;5033257;28;20563;-82
2023/09/25 11:11:04;;;;;;;1.98;1.10;;;20.40;85.40;;;;;;5101295;28;20026;-81
2023/09/25 11:13:30;;;;;;;1.58;1.13;;;20.40;85.30;;;;;;5101095;28;20402;-81
2023/09/25 11:15:56;;;;;;;1.90;1.15;;;20.40;85.20;;;;;;5032634;28;20471;-81
2023/09/25 11:18:21;;;;;;;2.50;1.13;;;20.40;85.10;;;;;;5101084;28;20033;-81
2023/09/25 11:20:48;;;;;;;1.70;1.10;;;20.50;85.10;;;;;;5032488;28;20025;-81
2023/09/25 11:23:15;;;;;;;1.40;1.00;;;20.50;85.00;;;;;;5032389;28;20049;-82
2023/09/25 11:25:43;;;;;;;1.80;1.20;;;20.50;84.90;;;;;;5032448;28;20068;-81
2023/09/25 11:28:11;;;;;;;1.38;1.02;;;20.50;84.90;;;;;;5100965;28;20120;-82
2023/09/25 11:30:38;;;;;;;1.60;1.20;;;20.50;85.00;;;;;;5100980;28;20120;-80
2023/09/25 11:33:08;;;;;;;1.58;1.00;;;20.40;85.00;;;;;;5100952;28;20029;-83
2023/09/25 11:35:37;;;;;;;2.70;1.17;;;20.40;85.10;;;;;;5100719;28;20487;-82
2023/09/25 11:38:17;;;;;;;2.15;1.27;;;20.40;85.10;;;;;;5101059;28;20034;-82
2023/09/25 11:40:44;;;;;;;2.13;1.02;;;20.40;85.20;;;;;;5100821;28;20428;-81
2023/09/25 11:43:11;;;;;;;1.67;1.10;;;20.40;85.30;;;;;;5100715;28;20030;-80
2023/09/25 11:45:37;;;;;;;1.83;1.20;;;20.40;85.40;;;;;;5100823;28;20046;-83
2023/09/25 11:48:04;;;;;;;1.95;1.10;;;20.40;85.40;;;;;;5100692;28;20034;-82
2023/09/25 11:50:30;;;;;;;1.83;0.98;;;20.40;85.40;;;;;;5032275;28;20060;-83
2023/09/25 11:52:55;;;;;;;1.45;0.98;;;20.40;85.30;;;;;;5031994;28;20531;-81
2023/09/25 11:55:21;;;;;;;1.90;1.00;;;20.40;85.30;;;;;;5031866;28;20029;-81
2023/09/25 11:57:47;;;;;;;1.70;1.10;;;20.30;85.30;;;;;;5031909;28;20021;-82
2023/09/25 12:00:15;;;;;;;2.92;1.00;;;20.30;85.30;;;;;;5031852;28;20014;-82
2023/09/25 12:02:43;;;;;;;1.92;1.10;;;20.30;85.40;;;;;;5100399;28;20030;-81
2023/09/25 12:05:09;;;;;;;1.75;1.10;;;20.30;85.50;;;;;;5100054;28;20033;-82
2023/09/25 12:07:38;;;;;;;1.48;1.00;;;20.30;85.50;;;;;;5100210;28;20030;-83
2023/09/25 12:10:08;;;;;;;1.40;1.00;;;20.30;85.50;;;;;;5031577;28;20028;-83
2023/09/25 12:12:38;;;;;;;2.33;0.98;;;20.30;85.40;;;;;;5100106;28;20032;-83
2023/09/25 12:15:05;;;;;;;1.67;1.10;;;20.30;85.40;;;;;;5099899;28;20498;-82
2023/09/25 12:17:31;;;;;;;1.63;1.00;;;20.30;85.30;;;;;;5100154;28;20079;-81
2023/09/25 12:20:07;;;;;;;1.33;1.02;;;20.30;85.10;;;;;;5031489;28;20104;-83
2023/09/25 12:22:33;;;;;;;1.45;1.10;;;20.30;85.10;;;;;;5100029;28;20022;-83
2023/09/25 12:24:58;;;;;;;1.95;1.10;;;20.30;85.20;;;;;;5100150;28;20029;-81
2023/09/25 12:27:24;;;;;;;2.22;1.10;;;20.30;85.30;;;;;;5099718;28;20057;-81
2023/09/25 12:29:49;;;;;;;2.13;1.20;;;20.30;85.30;;;;;;5099652;28;20030;-81
2023/09/25 12:32:15;;;;;;;1.75;1.10;;;20.30;85.50;;;;;;5100156;28;20029;-81
2023/09/25 12:34:41;;;;;;;1.60;1.10;;;20.30;85.50;;;;;;5099446;28;20608;-81
2023/09/25 12:37:06;;;;;;;1.70;1.13;;;20.30;85.60;;;;;;5099561;28;20026;-81
2023/09/25 12:39:34;;;;;;;1.90;1.10;;;20.20;85.50;;;;;;5099050;28;20045;-82
2023/09/25 12:42:00;;;;;;;1.90;1.08;;;20.20;85.60;;;;;;5031315;28;20022;-81
2023/09/25 12:44:25;;;;;;;2.22;1.17;;;20.20;85.60;;;;;;5031055;28;20033;-81